createdAt,value
2019-04-23T00:02:19.759Z,3.93
2019-04-23T00:04:47.911Z,3.90
2019-04-23T00:10:01.154Z,4.30
2019-04-23T00:12:38.069Z,4.67
2019-04-23T00:15:05.154Z,3.97
2019-04-23T00:17:38.532Z,4.10
2019-04-23T00:20:06.734Z,3.97
2019-04-23T00:22:36.974Z,3.93
2019-04-23T00:27:44.242Z,4.20
2019-04-23T00:30:14.957Z,3.80
2019-04-23T00:32:44.631Z,3.90
2019-04-23T00:35:12.562Z,3.90
2019-04-23T00:38:02.208Z,3.83
2019-04-23T00:40:10.195Z,4.17
2019-04-23T00:42:49.006Z,4.20
2019-04-23T00:45:16.799Z,3.73
2019-04-23T00:47:46.606Z,4.00
2019-04-23T00:50:22.862Z,4.53
2019-04-23T00:52:48.761Z,4.67
2019-04-23T00:55:26.164Z,4.10
2019-04-23T00:57:50.454Z,3.90
2019-04-23T01:00:29.116Z,4.27
2019-04-23T01:02:57.330Z,4.40
2019-04-23T01:05:27.658Z,3.97
2019-04-23T01:07:49.983Z,3.77
2019-04-23T01:10:29.204Z,3.93
2019-04-23T01:13:11.272Z,4.27
2019-04-23T01:15:41.183Z,4.17
2019-04-23T01:18:14.135Z,4.20
2019-04-23T01:20:43.970Z,3.73
2019-04-23T01:22:54.915Z,3.97
2019-04-23T01:25:45.137Z,4.20
2019-04-23T01:31:02.196Z,4.47
2019-04-23T01:33:40.767Z,5.17
2019-04-23T01:36:16.215Z,4.27
2019-04-23T01:38:42.259Z,4.40
2019-04-23T01:41:09.703Z,3.73
2019-04-23T01:43:38.109Z,4.00
2019-04-23T01:46:08.085Z,4.40
2019-04-23T01:48:40.548Z,4.03
2019-04-23T01:51:04.334Z,3.47
2019-04-23T01:53:41.267Z,4.37
2019-04-23T01:56:14.001Z,4.07
2019-04-23T01:58:45.124Z,4.20
2019-04-23T02:01:11.653Z,3.87
2019-04-23T02:03:46.649Z,3.67
2019-04-23T02:11:31.596Z,3.77
2019-04-23T02:13:55.364Z,3.57
2019-04-23T02:16:26.220Z,4.20
2019-04-23T02:19:12.545Z,4.07
2019-04-23T02:21:38.206Z,4.00
2019-04-23T02:24:14.473Z,4.20
2019-04-23T02:26:36.879Z,4.47
2019-04-23T02:29:15.945Z,4.13
2019-04-23T02:31:57.746Z,3.67
2019-04-23T02:34:48.770Z,3.43
2019-04-23T02:36:59.830Z,4.17
2019-04-23T02:39:26.385Z,3.30
2019-04-23T02:44:36.652Z,3.60
2019-04-23T02:47:03.429Z,4.07
2019-04-23T02:49:27.229Z,4.10
2019-04-23T02:59:28.843Z,4.27
2019-04-23T03:02:17.505Z,3.27
2019-04-23T03:04:47.751Z,3.37
2019-04-23T03:07:16.025Z,4.20
2019-04-23T03:12:18.479Z,4.00
2019-04-23T03:14:46.231Z,4.30
2019-04-23T03:17:11.167Z,3.67
2019-04-23T03:19:47.544Z,3.63
2019-04-23T03:22:25.151Z,4.40
2019-04-23T03:25:23.487Z,3.93
2019-04-23T03:27:42.085Z,3.97
2019-04-23T03:36:13.737Z,4.50
2019-04-23T03:37:55.848Z,4.50
2019-04-23T03:42:57.690Z,3.83
2019-04-23T03:45:37.176Z,4.00
2019-04-23T03:48:00.820Z,4.13
2019-04-23T03:52:57.267Z,4.50
2019-04-23T03:58:08.119Z,3.97
2019-04-23T04:00:39.741Z,4.50
2019-04-23T04:03:10.366Z,4.90
2019-04-23T04:05:49.318Z,4.20
2019-04-23T04:08:13.233Z,4.57
2019-04-23T04:10:44.735Z,4.43
2019-04-23T04:13:20.066Z,3.97
2019-04-23T04:25:49.962Z,5.63
2019-04-23T04:28:17.648Z,5.70
2019-04-23T04:33:36.505Z,4.73
2019-04-23T04:36:12.699Z,5.33
2019-04-23T04:38:36.513Z,4.70
2019-04-23T04:43:32.142Z,4.77
2019-04-23T04:48:33.311Z,5.03
2019-04-23T04:53:47.800Z,4.57
2019-04-23T04:56:14.484Z,4.80
2019-04-23T04:58:40.738Z,4.67
2019-04-23T05:01:10.015Z,4.50
2019-04-23T05:03:29.586Z,4.87
2019-04-23T05:08:38.311Z,4.17
2019-04-23T05:11:23.310Z,4.83
2019-04-23T05:16:12.434Z,4.60
2019-04-23T05:21:12.233Z,4.50
2019-04-23T05:26:17.789Z,4.60
2019-04-23T05:31:21.123Z,4.60
2019-04-23T05:33:46.488Z,4.60
2019-04-23T05:36:34.351Z,5.13
2019-04-23T05:39:07.685Z,4.37
2019-04-23T05:41:22.153Z,5.10
2019-04-23T05:43:55.799Z,4.37
2019-04-23T05:46:28.708Z,4.63
2019-04-23T05:48:52.609Z,5.30
2019-04-23T05:51:31.190Z,4.60
2019-04-23T05:53:51.273Z,4.63
2019-04-23T05:56:27.468Z,4.30
2019-04-23T05:59:04.183Z,4.57
2019-04-23T06:01:49.866Z,4.47
2019-04-23T06:04:17.639Z,4.60
2019-04-23T06:06:54.151Z,4.63
2019-04-23T06:09:11.232Z,4.63
2019-04-23T06:11:47.340Z,4.70
2019-04-23T06:21:44.856Z,4.67
2019-04-23T06:24:16.322Z,4.63
2019-04-23T06:29:20.511Z,4.70
2019-04-23T06:31:47.533Z,4.90
2019-04-23T06:34:18.551Z,5.20
2019-04-23T06:36:46.593Z,5.03
2019-04-23T06:39:23.344Z,4.57
2019-04-23T06:41:49.932Z,4.20
2019-04-23T06:46:57.312Z,4.70
2019-04-23T06:49:28.430Z,5.10
2019-04-23T06:52:07.093Z,4.87
2019-04-23T06:54:27.896Z,5.20
2019-04-23T07:04:43.400Z,4.40
2019-04-23T07:07:24.084Z,4.47
2019-04-23T07:09:27.440Z,4.70
2019-04-23T07:12:05.792Z,4.60
2019-04-23T07:14:44.791Z,4.37
2019-04-23T07:17:03.920Z,4.57
2019-04-23T07:22:14.668Z,4.57
2019-04-23T07:24:41.977Z,4.00
2019-04-23T07:27:13.606Z,3.90
2019-04-23T07:29:41.754Z,4.07
2019-04-23T07:32:11.858Z,4.23
2019-04-23T07:34:49.809Z,4.77
2019-04-23T07:37:32.763Z,4.70
2019-04-23T07:40:11.403Z,3.90
2019-04-23T07:45:10.135Z,4.30
2019-04-23T07:48:06.555Z,4.37
2019-04-23T07:50:33.530Z,4.10
2019-04-23T07:53:05.640Z,4.27
2019-04-23T07:55:41.414Z,4.73
2019-04-23T07:58:10.575Z,4.07
2019-04-23T08:00:41.393Z,4.97
2019-04-23T08:03:10.959Z,4.10
2019-04-23T08:08:21.438Z,4.40
2019-04-23T08:10:46.705Z,3.80
2019-04-23T08:13:16.095Z,4.33
2019-04-23T08:15:43.432Z,4.13
2019-04-23T08:18:13.442Z,3.70
2019-04-23T08:23:38.247Z,3.80
2019-04-23T08:26:26.778Z,4.20
2019-04-23T08:29:03.601Z,4.70
2019-04-23T08:31:35.151Z,4.55
2019-04-23T08:34:09.169Z,4.03
2019-04-23T08:38:56.902Z,4.50
2019-04-23T08:41:33.791Z,3.40
2019-04-23T08:44:27.311Z,4.27
2019-04-23T08:47:12.731Z,4.03
2019-04-23T08:49:47.629Z,3.73
2019-04-23T08:54:48.300Z,4.15
2019-04-23T08:57:21.498Z,3.58
2019-04-23T08:59:45.473Z,4.53
2019-04-23T09:02:24.202Z,3.42
2019-04-23T09:04:50.238Z,4.45
2019-04-23T09:09:50.801Z,4.28
2019-04-23T09:12:24.221Z,4.17
2019-04-23T09:14:51.147Z,4.17
2019-04-23T09:20:13.287Z,4.10
2019-04-23T09:24:55.513Z,4.40
2019-04-23T09:27:26.305Z,4.03
2019-04-23T09:30:00.923Z,3.58
2019-04-23T09:40:54.439Z,3.90
2019-04-23T09:43:08.716Z,3.00
2019-04-23T09:45:46.441Z,3.70
2019-04-23T09:48:26.713Z,3.25
2019-04-23T09:50:50.928Z,3.45
2019-04-23T09:55:45.493Z,3.05
2019-04-23T10:00:56.140Z,2.27
2019-04-23T10:03:17.776Z,2.35
2019-04-23T10:05:37.285Z,2.10
2019-04-23T10:08:10.359Z,2.45
2019-04-23T10:10:32.249Z,2.12
2019-04-23T10:13:02.271Z,2.30
2019-04-23T10:15:38.175Z,2.42
2019-04-23T10:18:04.483Z,2.20
2019-04-23T10:20:34.488Z,2.05
2019-04-23T10:23:04.292Z,2.10
2019-04-23T10:25:34.133Z,1.80
2019-04-23T10:28:10.522Z,2.22
2019-04-23T10:30:38.421Z,2.52
2019-04-23T10:33:09.586Z,1.62
2019-04-23T10:35:49.240Z,2.12
2019-04-23T10:38:14.846Z,2.25
2019-04-23T10:40:46.775Z,2.10
2019-04-23T10:43:17.160Z,2.08
2019-04-23T10:46:27.993Z,2.35
2019-04-23T10:51:41.269Z,1.50
2019-04-23T10:54:26.476Z,1.55
2019-04-23T10:57:01.658Z,1.77
2019-04-23T10:59:38.883Z,1.55
2019-04-23T11:07:30.736Z,1.80
2019-04-23T11:10:52.493Z,1.92
2019-04-23T11:12:42.126Z,1.82
2019-04-23T11:15:16.573Z,2.58
2019-04-23T11:17:38.785Z,1.40
2019-04-23T11:20:07.450Z,2.20
2019-04-23T11:25:15.537Z,2.22
2019-04-23T11:27:40.592Z,2.05
2019-04-23T11:30:19.113Z,1.90
2019-04-23T11:35:22.731Z,1.67
2019-04-23T11:37:48.041Z,2.08
2019-04-23T11:40:19.952Z,1.10
2019-04-23T11:42:54.558Z,1.30
2019-04-23T11:45:24.861Z,1.37
2019-04-23T11:48:21.939Z,1.40
2019-04-23T11:50:39.569Z,1.27
2019-04-23T11:55:33.812Z,1.57
2019-04-23T11:57:59.296Z,2.47
2019-04-23T12:00:31.798Z,1.40
2019-04-23T12:03:07.651Z,1.35
2019-04-23T12:05:54.701Z,1.10
2019-04-23T12:08:36.492Z,1.50
2019-04-23T12:11:27.485Z,1.80
2019-04-23T12:13:38.108Z,1.30
2019-04-23T12:16:00.468Z,1.30
2019-04-23T12:21:06.686Z,1.57
2019-04-23T12:23:54.781Z,1.10
2019-04-23T12:26:15.677Z,1.10
2019-04-23T12:28:43.895Z,1.10
2019-04-23T12:31:17.763Z,1.05
2019-04-23T12:36:33.981Z,1.05
2019-04-23T12:38:56.805Z,0.90
2019-04-23T12:41:28.297Z,0.93
2019-04-23T12:44:03.175Z,1.12
2019-04-23T12:46:41.410Z,0.93
2019-04-23T12:49:26.923Z,1.07
2019-04-23T12:51:41.271Z,1.30
2019-04-23T12:54:17.519Z,1.02
2019-04-23T12:56:48.085Z,0.70
2019-04-23T12:59:07.004Z,1.27
2019-04-23T13:01:54.091Z,1.22
2019-04-23T13:04:09.268Z,0.95
2019-04-23T13:06:44.872Z,1.15
2019-04-23T13:11:50.117Z,1.37
2019-04-23T13:14:30.077Z,0.90
2019-04-23T13:17:02.684Z,1.80
2019-04-23T13:19:33.331Z,1.30
2019-04-23T13:24:39.215Z,0.80
2019-04-23T13:27:15.814Z,0.70
2019-04-23T13:32:04.461Z,0.90
2019-04-23T13:34:48.153Z,0.65
2019-04-23T13:37:21.633Z,0.90
2019-04-23T13:39:45.427Z,0.85
2019-04-23T13:42:22.786Z,0.60
2019-04-23T13:44:51.518Z,2.00
2019-04-23T13:47:27.999Z,2.67
2019-04-23T13:49:55.024Z,2.00
2019-04-23T13:52:51.669Z,2.10
2019-04-23T13:55:04.576Z,0.70
2019-04-23T14:00:01.847Z,0.93
2019-04-23T14:05:06.383Z,1.50
2019-04-23T14:07:43.990Z,0.80
2019-04-23T14:10:25.602Z,6.30
2019-04-23T14:12:41.609Z,4.15
2019-04-23T14:15:28.310Z,2.47
2019-04-23T14:17:59.889Z,1.35
2019-04-23T14:20:19.052Z,0.62
2019-04-23T14:23:00.325Z,0.75
2019-04-23T14:28:01.305Z,0.78
2019-04-23T14:32:54.344Z,0.60
2019-04-23T14:35:28.485Z,0.78
2019-04-23T14:38:11.308Z,3.10
2019-04-23T14:40:54.247Z,3.10
2019-04-23T14:48:09.914Z,0.75
2019-04-23T14:53:20.220Z,0.60
2019-04-23T14:58:27.278Z,0.78
2019-04-23T15:03:30.676Z,1.30
2019-04-23T15:06:04.919Z,0.60
2019-04-23T15:08:34.259Z,1.30
2019-04-23T15:13:28.073Z,0.50
2019-04-23T15:16:11.464Z,1.17
2019-04-23T15:18:55.113Z,1.95
2019-04-23T15:21:37.643Z,1.85
2019-04-23T15:24:00.266Z,1.07
2019-04-23T15:28:30.211Z,1.15
2019-04-23T15:34:03.758Z,0.80
2019-04-23T15:36:32.679Z,0.93
2019-04-23T15:41:32.130Z,0.65
2019-04-23T15:44:07.354Z,0.50
2019-04-23T15:46:32.961Z,0.50
2019-04-23T15:49:07.294Z,2.08
2019-04-23T15:51:38.979Z,1.30
2019-04-23T15:54:10.883Z,0.65
2019-04-23T16:01:34.126Z,1.10
2019-04-23T16:03:41.882Z,1.30
2019-04-23T16:06:12.759Z,1.35
2019-04-23T16:16:46.403Z,1.47
2019-04-23T16:19:20.650Z,0.80
2019-04-23T16:22:03.766Z,12.53
2019-04-23T16:26:59.662Z,6.40
2019-04-23T16:31:58.843Z,3.65
2019-04-23T16:37:02.569Z,5.55
2019-04-23T16:39:48.305Z,10.48
2019-04-23T16:42:06.040Z,3.72
2019-04-23T16:44:38.776Z,2.72
2019-04-23T16:47:18.684Z,2.20
2019-04-23T16:49:36.842Z,2.05
2019-04-23T16:52:07.882Z,2.75
2019-04-23T16:54:45.398Z,2.85
2019-04-23T16:57:24.452Z,2.40
2019-04-23T16:59:51.482Z,2.60
2019-04-23T17:02:14.907Z,1.90
2019-04-23T17:04:49.973Z,2.17
2019-04-23T17:07:06.678Z,2.40
2019-04-23T17:10:38.159Z,2.40
2019-04-23T17:12:16.284Z,2.27
2019-04-23T17:14:48.212Z,5.83
2019-04-23T17:17:14.794Z,6.17
2019-04-23T17:19:56.971Z,3.30
2019-04-23T17:22:17.695Z,3.00
2019-04-23T17:25:01.141Z,2.77
2019-04-23T17:29:57.939Z,3.05
2019-04-23T17:32:20.972Z,2.05
2019-04-23T17:35:09.614Z,1.98
2019-04-23T17:37:35.194Z,2.47
2019-04-23T17:42:45.459Z,1.77
2019-04-23T17:45:30.765Z,2.20
2019-04-23T17:47:57.635Z,1.80
2019-04-23T17:50:28.653Z,2.12
2019-04-23T17:52:56.287Z,2.10
2019-04-23T17:55:35.849Z,2.10
2019-04-23T17:57:58.902Z,6.42
2019-04-23T18:00:36.183Z,7.62
2019-04-23T18:03:06.012Z,3.75
2019-04-23T18:05:43.965Z,3.23
2019-04-23T18:08:14.775Z,2.20
2019-04-23T18:13:13.652Z,2.60
2019-04-23T18:15:53.354Z,2.67
2019-04-23T18:18:16.567Z,2.10
2019-04-23T18:21:35.713Z,2.40
2019-04-23T18:24:11.029Z,2.62
2019-04-23T18:26:45.961Z,2.37
2019-04-23T18:29:27.828Z,2.67
2019-04-23T18:34:43.654Z,3.33
2019-04-23T18:37:09.245Z,6.07
2019-04-23T18:39:37.317Z,6.03
2019-04-23T19:53:32.219Z,22.83
2019-04-23T19:55:58.799Z,6.77
2019-04-23T19:58:27.404Z,6.70
2019-04-23T20:06:03.141Z,6.40
2019-04-23T20:08:34.030Z,8.07
2019-04-23T20:10:57.823Z,7.03
2019-04-23T20:13:40.751Z,8.33
2019-04-23T20:18:42.982Z,7.20
2019-04-23T20:20:58.902Z,5.20
2019-04-23T20:23:58.634Z,4.93
2019-04-23T20:29:14.842Z,4.40
2019-04-23T20:34:24.554Z,4.23
2019-04-23T20:36:46.168Z,4.53
2019-04-23T20:44:47.513Z,10.43
2019-04-23T20:52:06.305Z,8.00
2019-04-23T20:54:42.129Z,8.17
2019-04-23T20:57:30.566Z,7.13
2019-04-23T20:59:56.779Z,6.43
2019-04-23T21:02:54.087Z,8.23
2019-04-23T21:05:10.048Z,6.53
2019-04-23T21:10:18.131Z,6.53
2019-04-23T21:15:22.974Z,5.03
2019-04-23T21:22:47.788Z,4.53
2019-04-23T21:25:14.447Z,4.47
2019-04-23T21:28:03.185Z,4.10
2019-04-23T21:30:59.424Z,4.37
2019-04-23T21:36:11.297Z,4.10
2019-04-23T21:41:32.941Z,3.80
2019-04-23T21:44:10.272Z,4.00
2019-04-23T21:46:33.950Z,3.57
2019-04-23T21:49:09.437Z,3.73
2019-04-23T21:51:42.211Z,3.50
2019-04-23T21:56:35.564Z,3.47
2019-04-23T22:01:39.766Z,3.13
2019-04-23T22:11:58.817Z,2.20
2019-04-23T22:14:09.945Z,2.50
2019-04-23T22:19:17.051Z,2.30
2019-04-23T22:21:47.519Z,2.10
2019-04-23T22:29:18.818Z,1.90
2019-04-23T22:34:22.269Z,1.90
2019-04-23T22:37:03.856Z,1.50
2019-04-23T22:39:26.901Z,1.30
2019-04-23T22:44:30.552Z,1.20
2019-04-23T22:47:04.000Z,2.17
2019-04-23T22:52:11.257Z,1.00
2019-04-23T22:54:31.873Z,0.70
2019-04-23T22:57:09.376Z,0.80
2019-04-23T22:59:48.717Z,0.90
2019-04-23T23:02:14.799Z,0.90
2019-04-23T23:07:28.885Z,0.67
2019-04-23T23:10:13.618Z,0.77
2019-04-23T23:12:36.546Z,0.90
2019-04-23T23:15:19.403Z,0.90
2019-04-23T23:17:42.981Z,0.73
2019-04-23T23:22:40.090Z,1.10
2019-04-23T23:25:16.821Z,0.80
2019-04-23T23:27:40.421Z,0.70
2019-04-23T23:32:40.857Z,0.57
2019-04-23T23:37:48.135Z,0.50
2019-04-23T23:40:20.371Z,0.40
2019-04-23T23:42:58.025Z,0.53
2019-04-23T23:45:21.605Z,0.77
2019-04-23T23:47:43.125Z,0.70
2019-04-23T23:50:25.566Z,0.50
2019-04-23T23:52:54.456Z,0.60
2019-04-23T23:55:19.872Z,0.60
2019-04-23T23:57:56.832Z,0.40
